Walum, North Dakota
Current Conditions -  °F | °C
As of 1:35 AM on Saturday 29 Nov 2014 (Local Time) from KBAC Reporting Station
Few Clouds Few Clouds  
Wind Chill:   Ceiling: Unl
Heat Index: 18°   Visibility: 8mi
Dew Point: 18°   Wind: 12mph
Humidity: 100%   Direction: 170°S
Pressure: 29.44"   Gusts: NA
Location:  47.2843°N, 98.1073°W
Report Text: KBAC 290735Z AUTO 17010KT 8SM FEW120 M08/M08 A2944 RMK AO2
Loading
Personal Weather Stations






























Interactive Weather Map New forecast layout! Learn more

10-Day Weather Forecast

Advertisements
Track Severe Weather on mobile